createdAt,value
2018-08-03T00:00:33.702Z,94814.20
2018-08-03T00:03:02.369Z,94813.99
2018-08-03T00:05:30.961Z,94813.81
2018-08-03T00:07:59.615Z,94812.66
2018-08-03T00:10:28.249Z,94808.64
2018-08-03T00:12:56.871Z,94806.59
2018-08-03T00:15:25.569Z,94800.78
2018-08-03T00:17:54.254Z,94794.45
2018-08-03T00:20:22.933Z,94794.27
2018-08-03T00:22:51.586Z,94795.71
2018-08-03T00:25:20.262Z,94794.19
2018-08-03T00:27:48.942Z,94800.42
2018-08-03T00:30:17.629Z,94801.25
2018-08-03T00:32:46.252Z,94800.42
2018-08-03T00:35:14.945Z,94803.36
2018-08-03T00:37:43.625Z,94803.36
2018-08-03T00:40:12.267Z,94804.97
2018-08-03T00:42:40.859Z,94802.04
2018-08-03T00:45:09.535Z,94803.06
2018-08-03T00:47:38.174Z,94802.75
2018-08-03T00:50:06.823Z,94802.40
2018-08-03T00:52:35.458Z,94810.55
2018-08-03T00:55:04.210Z,94805.71
2018-08-03T00:57:32.859Z,94810.14
2018-08-03T01:00:01.548Z,94811.81
2018-08-03T01:02:30.173Z,94814.45
2018-08-03T01:04:58.934Z,94815.19
2018-08-03T01:07:27.594Z,94811.96
2018-08-03T01:09:56.281Z,94810.94
2018-08-03T01:12:24.984Z,94815.72
2018-08-03T01:14:53.611Z,94817.53
2018-08-03T01:17:22.254Z,94815.63
2018-08-03T01:19:50.934Z,94816.03
2018-08-03T01:22:19.578Z,94813.39
2018-08-03T01:24:48.222Z,94809.02
2018-08-03T01:27:16.890Z,94813.39
2018-08-03T01:29:45.606Z,94809.49
2018-08-03T01:32:14.244Z,94815.80
2018-08-03T01:34:42.861Z,94811.60
2018-08-03T01:37:11.484Z,94815.20
2018-08-03T01:39:40.105Z,94813.28
2018-08-03T01:42:08.803Z,94817.10
2018-08-03T01:44:37.446Z,94814.55
2018-08-03T01:47:06.225Z,94818.25
2018-08-03T01:49:34.872Z,94817.39
2018-08-03T01:52:03.592Z,94815.61
2018-08-03T01:54:32.245Z,94818.13
2018-08-03T01:57:00.946Z,94818.13
2018-08-03T01:59:29.747Z,94821.74
2018-08-03T02:01:58.439Z,94824.24
2018-08-03T02:04:27.103Z,94826.18
2018-08-03T02:06:55.773Z,94827.38
2018-08-03T02:09:24.431Z,94822.33
2018-08-03T02:11:53.060Z,94822.83
2018-08-03T02:14:21.746Z,94818.87
2018-08-03T02:16:50.407Z,94824.30
2018-08-03T02:19:19.036Z,94830.08
2018-08-03T02:21:47.710Z,94819.94
2018-08-03T02:24:16.339Z,94817.77
2018-08-03T02:26:45.003Z,94822.27
2018-08-03T02:29:13.654Z,94831.51
2018-08-03T02:31:42.293Z,94833.00
2018-08-03T02:34:11.018Z,94831.74
2018-08-03T02:36:39.653Z,94832.70
2018-08-03T02:39:10.048Z,94830.91
2018-08-03T02:41:38.988Z,94831.73
2018-08-03T02:44:08.277Z,94830.25
2018-08-03T02:46:37.030Z,94831.80
2018-08-03T02:49:05.694Z,94836.91
2018-08-03T02:51:34.433Z,94841.22
2018-08-03T02:54:03.134Z,94839.17
2018-08-03T02:56:31.762Z,94844.33
2018-08-03T02:59:00.459Z,94845.78
2018-08-03T03:01:29.064Z,94844.86
2018-08-03T03:03:57.743Z,94842.39
2018-08-03T03:06:26.399Z,94846.12
2018-08-03T03:08:55.068Z,94845.59
2018-08-03T03:11:23.721Z,94845.42
2018-08-03T03:13:52.403Z,94846.48
2018-08-03T03:16:21.058Z,94846.61
2018-08-03T03:18:49.727Z,94842.23
2018-08-03T03:21:18.406Z,94843.70
2018-08-03T03:23:47.082Z,94840.64
2018-08-03T03:26:15.732Z,94844.08
2018-08-03T03:28:44.360Z,94845.92
2018-08-03T03:31:13.010Z,94845.78
2018-08-03T03:33:41.632Z,94851.19
2018-08-03T03:36:10.297Z,94857.01
2018-08-03T03:38:38.931Z,94860.44
2018-08-03T03:41:07.664Z,94857.34
2018-08-03T03:43:36.440Z,94857.64
2018-08-03T03:46:05.162Z,94855.83
2018-08-03T03:48:33.814Z,94858.38
2018-08-03T03:51:02.476Z,94859.16
2018-08-03T03:53:31.409Z,94865.42
2018-08-03T03:56:00.245Z,94868.06
2018-08-03T03:58:28.840Z,94868.62
2018-08-03T04:00:57.503Z,94873.17
2018-08-03T04:03:26.102Z,94883.62
2018-08-03T04:05:54.947Z,94884.55
2018-08-03T04:08:23.617Z,94883.77
2018-08-03T04:10:52.297Z,94883.34
2018-08-03T04:13:21.128Z,94884.36
2018-08-03T04:15:50.019Z,94883.05
2018-08-03T04:18:22.343Z,94883.91
2018-08-03T04:20:52.462Z,94882.38
2018-08-03T04:23:21.421Z,94883.08
2018-08-03T04:25:50.106Z,94887.86
2018-08-03T04:28:18.754Z,94887.03
2018-08-03T04:30:47.478Z,94889.86
2018-08-03T04:33:16.110Z,94895.03
2018-08-03T04:35:44.837Z,94884.44
2018-08-03T04:38:13.496Z,94889.96
2018-08-03T04:40:42.143Z,94889.70
2018-08-03T04:43:11.062Z,94893.79
2018-08-03T04:45:39.743Z,94897.20
2018-08-03T04:48:08.379Z,94894.77
2018-08-03T04:50:36.983Z,94894.46
2018-08-03T04:53:06.341Z,94894.19
2018-08-03T04:55:35.533Z,94898.44
2018-08-03T04:58:04.322Z,94903.90
2018-08-03T05:00:33.264Z,94910.78
2018-08-03T05:03:01.971Z,94906.94
2018-08-03T05:05:30.650Z,94908.55
2018-08-03T05:07:59.263Z,94910.20
2018-08-03T05:10:27.911Z,94911.61
2018-08-03T05:12:56.619Z,94911.31
2018-08-03T05:15:25.331Z,94916.41
2018-08-03T05:17:53.971Z,94917.27
2018-08-03T05:20:22.677Z,94914.67
2018-08-03T05:22:51.351Z,94923.30
2018-08-03T05:25:20.022Z,94921.80
2018-08-03T05:27:48.647Z,94925.67
2018-08-03T05:30:17.385Z,94927.05
2018-08-03T05:32:46.058Z,94928.23
2018-08-03T05:35:14.707Z,94925.23
2018-08-03T05:37:43.374Z,94926.20
2018-08-03T05:40:12.113Z,94914.99
2018-08-03T05:42:40.864Z,94918.71
2018-08-03T05:45:09.861Z,94920.95
2018-08-03T05:47:38.537Z,94924.73
2018-08-03T05:50:07.612Z,94920.38
2018-08-03T05:52:36.307Z,94915.33
2018-08-03T05:55:05.147Z,94920.62
2018-08-03T05:57:33.783Z,94923.36
2018-08-03T06:00:02.442Z,94918.16
2018-08-03T06:02:32.169Z,94918.27
2018-08-03T06:05:00.855Z,94921.10
2018-08-03T06:07:29.711Z,94923.41
2018-08-03T06:09:58.366Z,94924.31
2018-08-03T06:12:27.034Z,94927.02
2018-08-03T06:14:55.690Z,94925.53
2018-08-03T06:17:24.341Z,94930.42
2018-08-03T06:19:52.994Z,94926.05
2018-08-03T06:22:21.612Z,94926.98
2018-08-03T06:24:50.246Z,94921.36
2018-08-03T06:27:18.917Z,94922.84
2018-08-03T06:29:47.650Z,94923.30
2018-08-03T06:32:16.331Z,94924.03
2018-08-03T06:34:45.007Z,94929.77
2018-08-03T06:37:13.630Z,94922.64
2018-08-03T06:39:42.327Z,94925.14
2018-08-03T06:42:10.950Z,94923.07
2018-08-03T06:44:39.563Z,94922.28
2018-08-03T06:47:08.219Z,94924.64
2018-08-03T06:49:36.903Z,94922.20
2018-08-03T06:52:05.659Z,94924.92
2018-08-03T06:54:34.262Z,94927.61
2018-08-03T06:57:02.955Z,94921.36
2018-08-03T06:59:31.600Z,94924.11
2018-08-03T07:02:00.339Z,94925.37
2018-08-03T07:04:29.162Z,94920.91
2018-08-03T07:06:57.807Z,94926.53
2018-08-03T07:09:26.420Z,94930.60
2018-08-03T07:11:55.098Z,94929.11
2018-08-03T07:14:23.710Z,94929.73
2018-08-03T07:16:52.361Z,94935.99
2018-08-03T07:19:21.038Z,94937.91
2018-08-03T07:21:49.675Z,94935.33
2018-08-03T07:24:18.367Z,94929.33
2018-08-03T07:26:47.024Z,94928.67
2018-08-03T07:29:15.670Z,94932.17
2018-08-03T07:31:44.304Z,94925.87
2018-08-03T07:34:12.998Z,94931.84
2018-08-03T07:36:41.706Z,94933.02
2018-08-03T07:39:10.409Z,94931.80
2018-08-03T07:41:39.122Z,94933.25
2018-08-03T07:44:07.838Z,94929.27
2018-08-03T07:46:36.650Z,94927.27
2018-08-03T07:49:05.377Z,94925.31
2018-08-03T07:51:34.066Z,94936.59
2018-08-03T07:54:02.746Z,94926.05
2018-08-03T07:56:31.400Z,94930.55
2018-08-03T07:59:00.044Z,94933.67
2018-08-03T08:01:28.888Z,94927.03
2018-08-03T08:03:57.531Z,94936.34
2018-08-03T08:06:26.219Z,94937.53
2018-08-03T08:08:54.846Z,94942.23
2018-08-03T08:11:23.486Z,94941.63
2018-08-03T08:13:52.626Z,94942.73
2018-08-03T08:16:21.274Z,94946.92
2018-08-03T08:18:50.260Z,94944.25
2018-08-03T08:21:18.927Z,94941.44
2018-08-03T08:23:47.767Z,94942.09
2018-08-03T08:26:16.483Z,94942.13
2018-08-03T08:28:45.135Z,94942.17
2018-08-03T08:31:13.795Z,94938.31
2018-08-03T08:33:42.398Z,94942.30
2018-08-03T08:36:11.103Z,94939.33
2018-08-03T08:38:39.851Z,94932.03
2018-08-03T08:41:08.518Z,94934.91
2018-08-03T08:43:38.231Z,94937.63
2018-08-03T08:46:06.975Z,94936.66
2018-08-03T08:48:35.556Z,94942.05
2018-08-03T08:51:04.191Z,94924.43
2018-08-03T08:53:32.929Z,94934.23
2018-08-03T08:56:01.574Z,94936.41
2018-08-03T08:58:30.268Z,94932.56
2018-08-03T09:00:58.956Z,94938.88
2018-08-03T09:03:27.627Z,94936.89
2018-08-03T09:05:56.439Z,94930.51
2018-08-03T09:08:25.020Z,94937.28
2018-08-03T09:10:53.677Z,94938.66
2018-08-03T09:13:22.310Z,94930.91
2018-08-03T09:15:51.020Z,94928.30
2018-08-03T09:18:19.716Z,94922.68
2018-08-03T09:20:48.351Z,94922.38
2018-08-03T09:23:16.952Z,94927.52
2018-08-03T09:25:45.675Z,94917.44
2018-08-03T09:28:14.333Z,94913.72
2018-08-03T09:30:42.942Z,94916.17
2018-08-03T09:33:11.589Z,94911.40
2018-08-03T09:35:40.202Z,94917.53
2018-08-03T09:38:08.863Z,94910.56
2018-08-03T09:40:37.459Z,94904.91
2018-08-03T09:43:06.104Z,94911.84
2018-08-03T09:45:34.734Z,94909.98
2018-08-03T09:48:03.471Z,94904.90
2018-08-03T09:50:32.136Z,94902.98
2018-08-03T09:53:00.782Z,94902.43
2018-08-03T09:55:29.399Z,94892.95
2018-08-03T09:57:58.022Z,94895.15
2018-08-03T10:00:31.851Z,94895.94
2018-08-03T10:03:00.514Z,94887.65
2018-08-03T10:05:29.133Z,94895.66
2018-08-03T10:07:57.753Z,94896.73
2018-08-03T10:10:26.526Z,94895.59
2018-08-03T10:12:55.193Z,94884.03
2018-08-03T10:15:23.828Z,94893.09
2018-08-03T10:17:52.529Z,94887.67
2018-08-03T10:20:21.163Z,94885.26
2018-08-03T10:22:49.812Z,94884.20
2018-08-03T10:25:18.500Z,94890.81
2018-08-03T10:27:47.152Z,94876.70
2018-08-03T10:30:15.951Z,94881.16
2018-08-03T10:32:44.578Z,94873.91
2018-08-03T10:35:13.282Z,94870.27
2018-08-03T10:37:41.912Z,94867.08
2018-08-03T10:40:10.648Z,94864.41
2018-08-03T10:42:39.303Z,94856.29
2018-08-03T10:45:07.927Z,94852.30
2018-08-03T10:47:36.600Z,94853.30
2018-08-03T10:50:05.314Z,94851.76
2018-08-03T10:52:33.966Z,94851.63
2018-08-03T10:55:02.627Z,94852.06
2018-08-03T10:57:31.264Z,94851.58
2018-08-03T10:59:59.942Z,94844.24
2018-08-03T11:02:28.598Z,94837.73
2018-08-03T11:04:57.281Z,94838.77
2018-08-03T11:07:25.996Z,94842.45
2018-08-03T11:09:54.670Z,94844.23
2018-08-03T11:12:23.332Z,94837.77
2018-08-03T11:14:52.062Z,94843.29
2018-08-03T11:17:20.726Z,94842.34
2018-08-03T11:19:49.366Z,94845.20
2018-08-03T11:22:18.016Z,94840.86
2018-08-03T11:24:46.758Z,94840.00
2018-08-03T11:27:15.457Z,94842.19
2018-08-03T11:29:44.140Z,94845.52
2018-08-03T11:32:12.848Z,94839.14
2018-08-03T11:34:41.507Z,94837.33
2018-08-03T11:37:10.262Z,94839.80
2018-08-03T11:39:39.526Z,94835.66
2018-08-03T11:42:08.190Z,94830.09
2018-08-03T11:44:36.915Z,94832.79
2018-08-03T11:47:05.598Z,94833.39
2018-08-03T11:49:34.370Z,94824.83
2018-08-03T11:52:02.972Z,94828.69
2018-08-03T11:54:31.630Z,94826.98
2018-08-03T11:57:00.275Z,94828.41
2018-08-03T11:59:28.957Z,94827.84
2018-08-03T12:01:57.675Z,94817.14
2018-08-03T12:04:26.331Z,94812.60
2018-08-03T12:06:55.046Z,94816.61
2018-08-03T12:09:23.716Z,94810.42
2018-08-03T12:11:52.387Z,94816.48
2018-08-03T12:14:21.013Z,94805.05
2018-08-03T12:16:49.626Z,94803.84
2018-08-03T12:19:18.280Z,94795.59
2018-08-03T12:21:46.886Z,94804.05
2018-08-03T12:24:15.559Z,94803.72
2018-08-03T12:26:44.200Z,94796.33
2018-08-03T12:29:12.877Z,94797.53
2018-08-03T12:31:41.561Z,94798.13
2018-08-03T12:34:10.243Z,94799.05
2018-08-03T12:36:38.897Z,94789.61
2018-08-03T12:39:09.583Z,94789.21
2018-08-03T12:41:38.453Z,94793.63
2018-08-03T12:44:07.558Z,94793.11
2018-08-03T12:46:36.252Z,94793.64
2018-08-03T12:49:05.024Z,94791.84
2018-08-03T12:51:33.963Z,94781.98
2018-08-03T12:54:02.563Z,94788.05
2018-08-03T12:56:31.230Z,94783.73
2018-08-03T13:06:41.570Z,94775.38
2018-08-03T13:09:10.158Z,94782.02
2018-08-03T13:11:38.769Z,94783.11
2018-08-03T13:14:07.410Z,94780.39
2018-08-03T13:16:36.096Z,94775.17
2018-08-03T13:19:04.882Z,94779.28
2018-08-03T13:21:38.482Z,94777.27
2018-08-03T13:24:07.376Z,94781.19
2018-08-03T13:26:36.123Z,94778.13
2018-08-03T13:29:04.862Z,94783.09
2018-08-03T13:31:33.530Z,94781.44
2018-08-03T13:34:03.758Z,94785.42
2018-08-03T13:36:32.786Z,94777.52
2018-08-03T13:39:01.442Z,94775.46
2018-08-03T13:41:30.275Z,94778.20
2018-08-03T13:43:58.960Z,94776.93
2018-08-03T13:46:27.748Z,94768.14
2018-08-03T13:48:56.410Z,94766.46
2018-08-03T13:51:25.200Z,94773.57
2018-08-03T13:53:53.858Z,94766.09
2018-08-03T13:56:22.479Z,94772.55
2018-08-03T13:58:51.090Z,94772.89
2018-08-03T14:01:30.740Z,94754.45
2018-08-03T14:03:59.446Z,94758.73
2018-08-03T14:06:28.049Z,94755.23
2018-08-03T14:08:56.681Z,94754.30
2018-08-03T14:11:25.327Z,94758.66
2018-08-03T14:13:53.951Z,94758.83
2018-08-03T14:16:22.638Z,94761.97
2018-08-03T14:18:51.290Z,94751.80
2018-08-03T14:21:19.904Z,94746.38
2018-08-03T14:23:48.521Z,94749.48
2018-08-03T14:26:17.175Z,94759.08
2018-08-03T14:28:45.829Z,94745.92
2018-08-03T14:33:46.440Z,94749.31
2018-08-03T14:36:15.161Z,94741.80
2018-08-03T14:38:43.929Z,94729.81
2018-08-03T14:41:12.668Z,94737.99
2018-08-03T14:43:41.352Z,94731.98
2018-08-03T14:46:10.043Z,94733.53
2018-08-03T14:48:38.664Z,94734.81
2018-08-03T14:51:07.465Z,94736.30
2018-08-03T14:53:36.200Z,94736.98
2018-08-03T14:56:04.926Z,94730.62
2018-08-03T14:58:33.605Z,94730.30
2018-08-03T15:01:02.243Z,94729.36
2018-08-03T15:03:30.892Z,94737.92
2018-08-03T15:05:59.531Z,94737.50
2018-08-03T15:08:28.159Z,94734.81
2018-08-03T15:10:56.816Z,94739.45
2018-08-03T15:13:25.528Z,94734.47
2018-08-03T15:15:54.148Z,94732.52
2018-08-03T16:26:03.271Z,94759.72
2018-08-03T16:28:31.920Z,94758.09
2018-08-03T16:31:00.511Z,94765.27
2018-08-03T16:33:29.140Z,94763.75
2018-08-03T16:37:28.127Z,94767.40
2018-08-03T16:39:56.822Z,94762.55
2018-08-03T16:42:25.611Z,94765.80
2018-08-03T16:44:54.238Z,94762.50
2018-08-03T16:47:23.054Z,94761.41
2018-08-03T16:49:51.742Z,94759.94
2018-08-03T16:52:20.492Z,94761.00
2018-08-03T16:54:49.140Z,94763.27
2018-08-03T16:57:17.775Z,94763.81
2018-08-03T16:59:46.371Z,94760.06
2018-08-03T17:02:15.018Z,94770.20
2018-08-03T17:04:43.613Z,94769.46
2018-08-03T17:07:12.288Z,94769.34
2018-08-03T17:09:40.880Z,94768.66
2018-08-03T17:12:09.458Z,94769.39
2018-08-03T17:14:38.121Z,94760.09
2018-08-03T17:17:06.804Z,94771.34
2018-08-03T17:19:35.503Z,94768.27
2018-08-03T17:22:04.132Z,94778.70
2018-08-03T17:24:32.766Z,94773.50
2018-08-03T17:27:01.492Z,94771.98
2018-08-03T17:29:30.050Z,94781.91
2018-08-03T17:31:58.773Z,94779.63
2018-08-03T17:34:27.468Z,94779.44
2018-08-03T17:36:56.130Z,94779.80
2018-08-03T17:39:24.786Z,94777.61
2018-08-03T17:41:53.470Z,94782.75
2018-08-03T17:44:22.206Z,94783.88
2018-08-03T17:46:50.846Z,94777.55
2018-08-03T17:49:19.488Z,94793.26
2018-08-03T17:51:48.215Z,94792.22
2018-08-03T17:54:17.204Z,94790.36
2018-08-03T17:56:45.794Z,94791.70
2018-08-03T17:59:14.395Z,94785.05
2018-08-03T18:01:43.043Z,94784.78
2018-08-03T18:04:11.677Z,94786.63
2018-08-03T18:06:40.262Z,94791.92
2018-08-03T18:09:08.922Z,94792.73
2018-08-03T18:11:37.630Z,94798.55
2018-08-03T18:14:06.315Z,94789.25
2018-08-03T18:16:34.927Z,94800.95
2018-08-03T18:19:03.598Z,94803.86
2018-08-03T18:21:32.314Z,94807.05
2018-08-03T18:24:01.027Z,94803.55
2018-08-03T18:26:29.604Z,94821.10
2018-08-03T18:28:58.361Z,94819.44
2018-08-03T18:31:26.975Z,94821.51
2018-08-03T18:33:55.610Z,94824.42
2018-08-03T18:36:24.275Z,94827.88
2018-08-03T18:38:53.194Z,94834.50
2018-08-03T18:41:21.824Z,94831.02
2018-08-03T18:43:50.513Z,94836.58
2018-08-03T18:46:19.730Z,94840.23
2018-08-03T18:48:48.366Z,94833.78
2018-08-03T18:51:17.025Z,94840.95
2018-08-03T18:53:45.654Z,94839.61
2018-08-03T18:56:14.354Z,94841.30
2018-08-03T18:58:43.054Z,94840.27
2018-08-03T19:01:11.707Z,94831.88
2018-08-03T19:03:40.351Z,94835.57
2018-08-03T19:06:09.062Z,94834.22
2018-08-03T19:08:37.713Z,94836.06
2018-08-03T19:11:06.445Z,94837.39
2018-08-03T19:13:35.092Z,94838.94
2018-08-03T19:16:03.857Z,94843.98
2018-08-03T19:18:32.519Z,94841.56
2018-08-03T19:21:01.216Z,94844.40
2018-08-03T19:23:29.988Z,94849.13
2018-08-03T19:25:58.663Z,94856.30
2018-08-03T19:28:27.358Z,94849.85
2018-08-03T19:30:56.061Z,94856.23
2018-08-03T19:33:24.713Z,94853.30
2018-08-03T19:35:53.348Z,94850.06
2018-08-03T19:38:22.003Z,94848.70
2018-08-03T19:40:50.649Z,94846.24
2018-08-03T19:43:19.389Z,94851.77
2018-08-03T19:45:48.034Z,94850.88
2018-08-03T19:48:16.679Z,94849.67
2018-08-03T19:50:45.407Z,94848.34
2018-08-03T19:53:13.986Z,94842.19
2018-08-03T19:55:42.650Z,94842.66
2018-08-03T19:58:11.288Z,94834.35
2018-08-03T20:00:39.921Z,94836.95
2018-08-03T20:03:08.623Z,94834.44
2018-08-03T20:05:37.319Z,94839.75
2018-08-03T20:08:07.119Z,94843.05
2018-08-03T20:10:35.771Z,94845.70
2018-08-03T20:13:04.442Z,94844.28
2018-08-03T20:15:33.066Z,94846.42
2018-08-03T20:18:01.742Z,94838.47
2018-08-03T20:20:30.371Z,94841.56
2018-08-03T20:22:59.023Z,94840.49
2018-08-03T20:25:27.639Z,94836.36
2018-08-03T20:27:56.379Z,94848.00
2018-08-03T20:30:25.182Z,94847.94
2018-08-03T20:32:53.979Z,94845.83
2018-08-03T20:35:22.675Z,94843.42
2018-08-03T20:37:51.334Z,94842.86
2018-08-03T20:40:20.052Z,94841.03
2018-08-03T20:42:48.978Z,94842.47
2018-08-03T20:45:17.717Z,94849.09
2018-08-03T20:47:46.423Z,94846.59
2018-08-03T20:50:15.340Z,94846.31
2018-08-03T20:52:43.957Z,94850.28
2018-08-03T20:55:13.298Z,94856.87
2018-08-03T20:57:41.899Z,94853.86
2018-08-03T21:00:10.715Z,94852.21
2018-08-03T21:02:39.330Z,94851.60
2018-08-03T21:05:07.998Z,94849.37
2018-08-03T21:07:36.622Z,94857.11
2018-08-03T21:10:05.398Z,94860.72
2018-08-03T21:12:34.094Z,94856.42
2018-08-03T21:15:02.904Z,94856.14
2018-08-03T21:17:31.560Z,94865.33
2018-08-03T21:20:00.183Z,94864.29
2018-08-03T21:22:28.809Z,94863.76
2018-08-03T21:24:57.447Z,94862.34
2018-08-03T21:27:26.247Z,94863.56
2018-08-03T21:29:54.895Z,94861.57
2018-08-03T21:32:23.567Z,94863.52
2018-08-03T21:34:52.367Z,94871.37
2018-08-03T21:37:21.126Z,94866.53
2018-08-03T21:39:49.803Z,94866.45
2018-08-03T21:42:19.194Z,94870.70
2018-08-03T21:44:47.779Z,94867.77
2018-08-03T21:47:16.419Z,94873.16
2018-08-03T21:49:45.038Z,94863.02
2018-08-03T21:52:13.895Z,94871.48
2018-08-03T21:54:42.594Z,94874.88
2018-08-03T21:57:11.280Z,94873.89
2018-08-03T21:59:39.971Z,94878.36
2018-08-03T22:02:08.697Z,94876.11
2018-08-03T22:04:37.354Z,94874.80
2018-08-03T22:07:06.060Z,94873.45
2018-08-03T22:09:34.751Z,94879.16
2018-08-03T22:12:03.533Z,94876.99
2018-08-03T22:14:32.269Z,94871.41
2018-08-03T22:17:00.974Z,94873.77
2018-08-03T22:19:29.663Z,94884.48
2018-08-03T22:21:58.262Z,94884.43
2018-08-03T22:24:27.016Z,94891.23
2018-08-03T22:26:55.697Z,94882.21
2018-08-03T22:29:24.479Z,94874.48
2018-08-03T22:31:53.119Z,94872.61
2018-08-03T22:34:21.851Z,94871.48
2018-08-03T22:36:50.438Z,94877.98
2018-08-03T22:39:19.090Z,94879.47
2018-08-03T22:41:47.713Z,94877.08
2018-08-03T22:44:16.358Z,94875.07
2018-08-03T22:46:45.014Z,94870.31
2018-08-03T22:49:13.633Z,94869.73
2018-08-03T22:51:42.290Z,94868.46
2018-08-03T22:54:11.003Z,94864.45
2018-08-03T22:56:39.634Z,94864.39
2018-08-03T22:59:08.242Z,94860.19
2018-08-03T23:01:36.894Z,94864.58
2018-08-03T23:04:05.663Z,94855.83
2018-08-03T23:06:34.357Z,94851.26
2018-08-03T23:09:03.167Z,94850.73
2018-08-03T23:11:31.897Z,94859.81
2018-08-03T23:14:00.659Z,94861.38
2018-08-03T23:16:29.281Z,94857.66
2018-08-03T23:18:57.885Z,94860.50
2018-08-03T23:21:26.568Z,94856.11
2018-08-03T23:23:55.222Z,94852.83
2018-08-03T23:26:23.855Z,94850.81
2018-08-03T23:28:52.589Z,94852.78
2018-08-03T23:31:21.267Z,94851.58
2018-08-03T23:33:49.927Z,94852.72
2018-08-03T23:36:18.585Z,94850.38
2018-08-03T23:38:47.248Z,94852.02
2018-08-03T23:41:16.030Z,94849.51
2018-08-03T23:43:44.614Z,94845.14
2018-08-03T23:46:13.275Z,94846.36
2018-08-03T23:48:41.887Z,94846.36
2018-08-03T23:51:10.508Z,94845.94
2018-08-03T23:53:39.159Z,94847.89
2018-08-03T23:56:07.755Z,94848.92
2018-08-03T23:58:36.358Z,94848.23
